Thunder radar more information blitzortung!


Radar de pluja more information rain snow radar


Visita la nostra xarxa de llocs de meteo:

Template documentation
and downloads

And another site



No particular awareness of the weather is required.    There are no Weather-warnings

Pagina Historial Weather Underground text

Diari Resum Abril 11, 2016 Unitats:  Mètric    Imperial   Tant
« Previous Dia
SegĂźent Dia »
Diari Setmana Mensual Anual Personalitzada
  Maxima: Minima: Media:
Temperatura: -17.8 °C -12.1 °C -9 °C
Punt de rosada: -17.8 °C -15.5 °C -14.2 °C
Humitat: Humidity % 35 % 56 %
Wind Speed: 0 km/h 0 km/h 11.6 km/h
RĂ fegues de vent: 0 km/h - -
Vent:- - SW
Pression baro: 0 hPa 34164.7 hPa -
Precipitacions: 0 mm    
Historical Graphs
 
 
Dades de taula per Abril 11, 2016
Temps Temperatura Punt de rosada Pression baro Vent Wind Speed RĂ fegues de vent Humitat Rainfall Rate (Hourly)
-17.8 °C -17.8 °C 0 hPa Calm     Humidity % 0 mm
00:00 -11.7 °C -13.6 °C 34222.3 hPa NE 2.6 km/h 5.1 km/h 79 % 0 mm
00:10 -11.8 °C -13.8 °C 34164.7 hPa NE 5.1 km/h 7.7 km/h 78 % 0 mm
00:20 -11.8 °C -13.9 °C 34198.6 hPa ENE 2.6 km/h 7.7 km/h 78 % 0 mm
00:30 -11.9 °C -13.9 °C 34198.6 hPa Calm   5.1 km/h 78 % 0 mm
00:40 -11.9 °C -13.8 °C 34198.6 hPa Calm   5.1 km/h 79 % 0 mm
00:50 -11.8 °C -13.6 °C 34198.6 hPa WSW 2.6 km/h 5.1 km/h 81 % 0 mm
01:00 -11.9 °C -13.8 °C 34198.6 hPa ENE 5.1 km/h 5.1 km/h 79 % 0 mm
01:10 -11.9 °C -13.7 °C 34222.3 hPa South 2.6 km/h 2.6 km/h 81 % 0 mm
01:20 -11.9 °C -13.6 °C 34198.6 hPa South 2.6 km/h 5.1 km/h 82 % 0 mm
01:30 -12 °C -13.7 °C 34198.6 hPa ENE 2.6 km/h 5.1 km/h 82 % 0 mm
01:50 -12.1 °C -13.7 °C 34198.6 hPa NNE 2.6 km/h 5.1 km/h 82 % 0 mm
02:00 -12.1 °C -13.6 °C 34198.6 hPa Calm   7.7 km/h 83 % 0 mm
02:10 -12 °C -13.6 °C 34198.6 hPa NE 2.6 km/h 2.6 km/h 83 % 0 mm
02:20 -12 °C -13.4 °C 34198.6 hPa Calm   2.6 km/h 84 % 0 mm
02:30 -12 °C -13.6 °C 34198.6 hPa Calm   2.6 km/h 83 % 0 mm
02:40 -11.9 °C -13.4 °C 34198.6 hPa Calm   2.6 km/h 84 % 0 mm
02:50 -11.9 °C -13.4 °C 34198.6 hPa ENE 2.6 km/h 5.1 km/h 83 % 0 mm
03:00 -11.8 °C -13.3 °C 34198.6 hPa North 2.6 km/h 2.6 km/h 84 % 0 mm
03:10 -11.8 °C -13.2 °C 34198.6 hPa Calm   2.6 km/h 84 % 0 mm
03:20 -11.8 °C -13.2 °C 34222.3 hPa Calm   2.6 km/h 84 % 0 mm
03:30 -11.7 °C -13.2 °C 34222.3 hPa ESE 2.6 km/h 5.1 km/h 84 % 0 mm
03:40 -11.6 °C -13.2 °C 34198.6 hPa ENE 5.1 km/h 10.3 km/h 83 % 0 mm
03:50 -11.5 °C -13.2 °C 34222.3 hPa Calm   7.7 km/h 82 % 0 mm
04:00 -11.3 °C -13.1 °C 34222.3 hPa WNW 2.6 km/h 5.1 km/h 81 % 0 mm
04:10 -11.3 °C -12.9 °C 34222.3 hPa West 2.6 km/h 5.1 km/h 82 % 0 mm
04:20 -11.1 °C -12.9 °C 34222.3 hPa SW 2.6 km/h 5.1 km/h 81 % 0 mm
04:30 -10.9 °C -12.7 °C 34222.3 hPa SW 5.1 km/h 5.1 km/h 81 % 0 mm
04:40 -10.8 °C -12.6 °C 34256.2 hPa SW 2.6 km/h 7.7 km/h 81 % 0 mm
04:50 -10.6 °C -12.4 °C 34256.2 hPa SSW 2.6 km/h 5.1 km/h 81 % 0 mm
05:00 -10.5 °C -12.4 °C 34256.2 hPa SSW 2.6 km/h 7.7 km/h 80 % 0 mm
05:10 -10.2 °C -12.1 °C 34256.2 hPa SW 5.1 km/h 7.7 km/h 80 % 0 mm
05:20 -9.8 °C -11.7 °C 34222.3 hPa SW 5.1 km/h 7.7 km/h 80 % 0 mm
05:30 -9.8 °C -11.8 °C 34222.3 hPa SW 7.7 km/h 7.7 km/h 79 % 0 mm
05:40 -9.5 °C -11.6 °C 34256.2 hPa SW 2.6 km/h 12.9 km/h 78 % 0 mm
05:50 -9.4 °C -11.5 °C 34256.2 hPa SW 5.1 km/h 7.7 km/h 78 % 0 mm
10:52 -9.4 °C -11.5 °C 34256.2 hPa SW 9 km/h 9 km/h 78 % 0 mm
10:57 -8.9 °C -11.5 °C 34256.2 hPa SW 7.6 km/h 7.6 km/h 74 % 0 mm
11:02 -8.8 °C -11.3 °C 34222.3 hPa WSW 7.6 km/h 7.6 km/h 74 % 0 mm
11:07 -8.6 °C -11.8 °C 34222.3 hPa West 9 km/h 9 km/h 69 % 0 mm
11:12 -8.4 °C -12 °C 34222.3 hPa WSW 9 km/h 9.3 km/h 66 % 0 mm
11:17 -8.2 °C -12.1 °C 34293.4 hPa West 11.1 km/h 11.1 km/h 64 % 0 mm
11:22 -8.3 °C -12.5 °C 34293.4 hPa West 11.9 km/h 11.9 km/h 61 % 0 mm
11:27 -8.2 °C -12.3 °C 34293.4 hPa WSW 6 km/h 6 km/h 62 % 0 mm
11:32 -8.2 °C -12.3 °C 34256.2 hPa SSW 6 km/h 6 km/h 62 % 0 mm
11:37 -8.2 °C -12.3 °C 34256.2 hPa WSW 11.9 km/h 11.9 km/h 62 % 0 mm
11:42 -8.2 °C -12.3 °C 34256.2 hPa SW 15 km/h 15 km/h 62 % 0 mm
11:47 -7.7 °C -12.4 °C 34256.2 hPa South 6 km/h 6 km/h 57 % 0 mm
11:52 -7.7 °C -12.4 °C 34256.2 hPa SW 15.3 km/h 15.3 km/h 57 % 0 mm
11:57 -7.7 °C -12.4 °C 34256.2 hPa ESE 8.5 km/h 8.5 km/h 57 % 0 mm
12:12 -7.7 °C -12.4 °C 34256.2 hPa WNW 11.9 km/h 11.9 km/h 57 % 0 mm
12:17 -7.7 °C -12.4 °C 34256.2 hPa SW 20.9 km/h 20.9 km/h 57 % 0 mm
12:22 -7.7 °C -12.4 °C 34256.2 hPa NNW 12.7 km/h 12.7 km/h 57 % 0 mm
12:27 -7.7 °C -12.4 °C 34256.2 hPa WSW 15 km/h 15 km/h 57 % 0 mm
12:37 -7.7 °C -12.4 °C 34256.2 hPa WSW 6.3 km/h 6.3 km/h 57 % 0 mm
12:42 -6.8 °C -12.9 °C 34256.2 hPa WNW 11.9 km/h 11.9 km/h 49 % 0 mm
12:47 -6.9 °C -13.5 °C 34256.2 hPa West 15 km/h 15 km/h 46 % 0 mm
12:52 -6.8 °C -13.3 °C 34256.2 hPa SW 11.9 km/h 11.9 km/h 47 % 0 mm
12:57 -6.7 °C -13.3 °C 34256.2 hPa SW 9 km/h 9 km/h 46 % 0 mm
13:02 -6.4 °C -13.1 °C 34222.3 hPa WSW 11.9 km/h 11.9 km/h 46 % 0 mm
13:07 -6.6 °C -13.2 °C 34222.3 hPa ESE 11.6 km/h 11.6 km/h 46 % 0 mm
13:12 -6.7 °C -13.5 °C 34222.3 hPa SSE 9 km/h 9 km/h 45 % 0 mm
13:22 -6.9 °C -13.5 °C 34222.3 hPa West 9.8 km/h 9.8 km/h 46 % 0 mm
13:27 -7.2 °C -14.1 °C 34222.3 hPa SSW 11.9 km/h 11.9 km/h 44 % 0 mm
13:32 -7.2 °C -14 °C 34222.3 hPa SSW 9 km/h 9 km/h 45 % 0 mm
13:42 -6.9 °C -13.9 °C 34222.3 hPa SSW 6 km/h 6 km/h 44 % 0 mm
13:47 -6.8 °C -13.8 °C 34222.3 hPa West 6 km/h 6 km/h 44 % 0 mm
13:52 -6.8 °C -13.8 °C 34222.3 hPa ENE 8 km/h 8 km/h 44 % 0 mm
13:57 -7 °C -13.8 °C 34222.3 hPa SSW 11.1 km/h 11.1 km/h 45 % 0 mm
14:02 -7 °C -14 °C 34198.6 hPa WSW 9.3 km/h 9.3 km/h 44 % 0 mm
14:07 -7 °C -14 °C 34198.6 hPa SSE 6.8 km/h 6.8 km/h 44 % 0 mm
14:12 -7 °C -14 °C 34198.6 hPa SW 11.9 km/h 11.9 km/h 44 % 0 mm
14:22 -6.7 °C -13.9 °C 34222.3 hPa WSW 15.6 km/h 15.6 km/h 43 % 0 mm
14:27 -6.4 °C -13.6 °C 34222.3 hPa WSW 6 km/h 6 km/h 43 % 0 mm
14:32 -6.3 °C -13.8 °C 34198.6 hPa SSW 11.9 km/h 11.9 km/h 42 % 0 mm
14:37 -6.3 °C -13.8 °C 34198.6 hPa WNW 11.9 km/h 11.9 km/h 42 % 0 mm
14:42 -6.3 °C -13.8 °C 34198.6 hPa SSE 9 km/h 9 km/h 42 % 0 mm
14:47 -6.3 °C -13.8 °C 34198.6 hPa SW 15 km/h 15 km/h 42 % 0 mm
14:52 -5.9 °C -13.8 °C 34198.6 hPa WSW 11.1 km/h 11.1 km/h 40 % 0 mm
14:57 -5.8 °C -14.1 °C 34198.6 hPa SSW 29.8 km/h 29.8 km/h 38 % 0 mm
15:07 -5.6 °C -14.1 °C 34198.6 hPa WSW 15 km/h 15 km/h 37 % 0 mm
15:12 -5.4 °C -13.9 °C 34198.6 hPa SE 6 km/h 6 km/h 37 % 0 mm
15:17 -5.4 °C -14 °C 34198.6 hPa South 17.9 km/h 17.9 km/h 37 % 0 mm
15:22 -5.4 °C -14.2 °C 34198.6 hPa South 15 km/h 15 km/h 36 % 0 mm
15:27 -5.4 °C -14.4 °C 34198.6 hPa WSW 29.8 km/h 29.8 km/h 35 % 0 mm
15:32 -5.3 °C -14.3 °C 34164.7 hPa South 15 km/h 15 km/h 35 % 0 mm
15:37 -5.3 °C -14.3 °C 34164.7 hPa SSE 15 km/h 15 km/h 35 % 0 mm
15:42 -5.3 °C -14.1 °C 34164.7 hPa WSW 20.9 km/h 20.9 km/h 36 % 0 mm
15:47 -5.4 °C -14.2 °C 34198.6 hPa WSW 26.4 km/h 26.4 km/h 36 % 0 mm
15:52 -5.6 °C -14.1 °C 34198.6 hPa SW 26.9 km/h 26.9 km/h 37 % 0 mm
15:57 -5.6 °C -14.1 °C 34198.6 hPa SSE 26.9 km/h 26.9 km/h 37 % 0 mm
16:02 -5.8 °C -14.3 °C 34198.6 hPa SW 32.8 km/h 32.8 km/h 37 % 0 mm
16:07 -5.8 °C -14.3 °C 34198.6 hPa SSW 29.8 km/h 29.8 km/h 37 % 0 mm
16:12 -6 °C -14.5 °C 34198.6 hPa SW 23.8 km/h 23.8 km/h 37 % 0 mm
16:17 -5.9 °C -14.6 °C 34198.6 hPa WSW 29 km/h 29 km/h 36 % 0 mm
16:22 -6 °C -14.7 °C 34198.6 hPa West 20.3 km/h 20.3 km/h 36 % 0 mm
16:27 -6.1 °C -14.8 °C 34198.6 hPa West 50.7 km/h 50.7 km/h 36 % 0 mm
16:32 -5.9 °C -14.4 °C 34198.6 hPa SW 17.9 km/h 17.9 km/h 37 % 0 mm
16:37 -6.3 °C -14.7 °C 34198.6 hPa West 41.7 km/h 41.7 km/h 37 % 0 mm
16:42 -6.2 °C -14.6 °C 34198.6 hPa SW 20.9 km/h 20.9 km/h 37 % 0 mm
16:52 -6.1 °C -14.8 °C 34198.6 hPa SW 23.8 km/h 23.8 km/h 36 % 0 mm
16:57 -6.2 °C -14.9 °C 34198.6 hPa SW 31.4 km/h 31.4 km/h 36 % 0 mm
17:02 -6.4 °C -15.1 °C 34198.6 hPa SW 25.1 km/h 25.1 km/h 36 % 0 mm
17:07 -6.4 °C -14.8 °C 34198.6 hPa West 20.9 km/h 20.9 km/h 37 % 0 mm
17:17 -6.3 °C -14.8 °C 34198.6 hPa SSW 17.9 km/h 17.9 km/h 37 % 0 mm
17:22 -6.4 °C -14.9 °C 34198.6 hPa SSW 26.9 km/h 26.9 km/h 37 % 0 mm
17:27 -6.6 °C -15.1 °C 34198.6 hPa SW 32.8 km/h 32.8 km/h 37 % 0 mm
17:32 -6.7 °C -14.9 °C 34164.7 hPa WSW 32.8 km/h 32.8 km/h 38 % 0 mm
17:37 -6.7 °C -15.1 °C 34164.7 hPa SSW 20.9 km/h 20.9 km/h 37 % 0 mm
17:42 -6.7 °C -15.1 °C 34164.7 hPa SSW 15 km/h 15 km/h 37 % 0 mm
17:47 -6.6 °C -14.9 °C 34222.3 hPa SW 31.4 km/h 31.4 km/h 37 % 0 mm
17:52 -6.8 °C -15.2 °C 34222.3 hPa SW 26.9 km/h 26.9 km/h 37 % 0 mm
17:57 -6.8 °C -14.9 °C 34222.3 hPa SSW 27.2 km/h 27.2 km/h 38 % 0 mm
18:02 -7 °C -14.9 °C 34198.6 hPa WSW 23.8 km/h 23.8 km/h 39 % 0 mm
18:07 -6.9 °C -14.9 °C 34198.6 hPa SW 20.9 km/h 20.9 km/h 39 % 0 mm
18:12 -7 °C -14.8 °C 34198.6 hPa SW 23.8 km/h 23.8 km/h 40 % 0 mm
18:17 -7.1 °C -14.8 °C 34198.6 hPa SW 23.8 km/h 23.8 km/h 40 % 0 mm
18:22 -7.1 °C -14.6 °C 34198.6 hPa SW 20.9 km/h 20.9 km/h 41 % 0 mm
18:27 -7.2 °C -14.5 °C 34198.6 hPa SW 26.9 km/h 26.9 km/h 42 % 0 mm
18:32 -7.2 °C -14.6 °C 34198.6 hPa SSW 26.9 km/h 26.9 km/h 42 % 0 mm
18:37 -7.2 °C -14.4 °C 34198.6 hPa South 23.8 km/h 23.8 km/h 43 % 0 mm
18:42 -7.4 °C -14.3 °C 34198.6 hPa SSW 23.8 km/h 23.8 km/h 44 % 0 mm
18:47 -7.2 °C -14.2 °C 34198.6 hPa WSW 12.7 km/h 14.5 km/h 44 % 0 mm
18:52 -7.4 °C -14.2 °C 34198.6 hPa SW 35.7 km/h 35.7 km/h 45 % 0 mm
18:57 -7.4 °C -14.2 °C 34198.6 hPa SSW 11.9 km/h 11.9 km/h 45 % 0 mm
19:02 -7.4 °C -14.2 °C 34198.6 hPa SSW 9.3 km/h 9.3 km/h 45 % 0 mm
19:07 -7.4 °C -14.2 °C 34198.6 hPa SSW 9.3 km/h 9.3 km/h 45 % 0 mm
19:10 -10.9 °C -15.4 °C 34327.3 hPa WSW 7.7 km/h 7.7 km/h 58 % 0 mm
19:12 -7.7 °C -14.5 °C 34198.6 hPa WSW 9.3 km/h 9.3 km/h 45 % 0 mm
19:17 -7.9 °C -14.4 °C 34198.6 hPa WSW 15.6 km/h 15.6 km/h 46 % 0 mm
19:20 -10.9 °C -15.4 °C 34327.3 hPa WSW 5.1 km/h 10.3 km/h 58 % 0 mm
19:22 -7.9 °C -14.5 °C 34198.6 hPa SSW 16.1 km/h 16.1 km/h 46 % 0 mm
19:27 -8.1 °C -14.4 °C 34198.6 hPa WSW 15 km/h 15 km/h 47 % 0 mm
19:30 -10.9 °C -15.4 °C 34327.3 hPa WSW 5.1 km/h 7.7 km/h 58 % 0 mm
19:32 -8.2 °C -14.5 °C 34198.6 hPa SW 15 km/h 15.6 km/h 47 % 0 mm
19:37 -8.3 °C -14.4 °C 34198.6 hPa West 15 km/h 16.1 km/h 48 % 0 mm
19:40 -10.9 °C -15.4 °C 34327.3 hPa WSW 5.1 km/h 7.7 km/h 58 % 0 mm
19:42 -8.4 °C -14.2 °C 34198.6 hPa SSW 12.2 km/h 16.1 km/h 50 % 0 mm
19:47 -8.5 °C -14.3 °C 34198.6 hPa SW 20.9 km/h 20.9 km/h 50 % 0 mm
19:50 -11 °C -15.4 °C 34327.3 hPa WSW 5.1 km/h 7.7 km/h 58 % 0 mm
19:52 -8.6 °C -14.4 °C 34198.6 hPa WSW 9 km/h 14.5 km/h 50 % 0 mm
19:57 -8.6 °C -14.4 °C 34198.6 hPa SW 14 km/h 14 km/h 50 % 0 mm
20:00 -11 °C -15.4 °C 34327.3 hPa WSW 5.1 km/h 7.7 km/h 58 % 0 mm
20:02 -8.7 °C -14.4 °C 34164.7 hPa WSW 15.3 km/h 15.3 km/h 51 % 0 mm
20:07 -8.8 °C -14.4 °C 34164.7 hPa WSW 15 km/h 15 km/h 51 % 0 mm
20:10 -11.1 °C -15.4 °C 34327.3 hPa SW 5.1 km/h 7.7 km/h 59 % 0 mm
20:12 -8.9 °C -14.3 °C 34164.7 hPa SW 15 km/h 15 km/h 52 % 0 mm
20:17 -9 °C -14.5 °C 34222.3 hPa WSW 15 km/h 15 km/h 52 % 0 mm
20:20 -11.1 °C -15.3 °C 34327.3 hPa SW 5.1 km/h 10.3 km/h 60 % 0 mm
20:22 -9.1 °C -14.4 °C 34222.3 hPa WSW 15 km/h 15 km/h 53 % 0 mm
20:27 -9.2 °C -14.5 °C 34222.3 hPa SW 20.9 km/h 20.9 km/h 53 % 0 mm
20:30 -11.1 °C -15.3 °C 34327.3 hPa SW 5.1 km/h 7.7 km/h 60 % 0 mm
20:32 -9.3 °C -14.4 °C 34222.3 hPa SW 16.1 km/h 16.1 km/h 54 % 0 mm
20:37 -9.4 °C -14.4 °C 34222.3 hPa SW 15 km/h 15 km/h 55 % 0 mm
20:40 -11.1 °C -15.2 °C 34327.3 hPa SW 5.1 km/h 7.7 km/h 61 % 0 mm
20:42 -9.5 °C -14.3 °C 34222.3 hPa SW 15.3 km/h 15.3 km/h 56 % 0 mm
20:47 -9.6 °C -14.4 °C 34222.3 hPa SW 17.9 km/h 17.9 km/h 56 % 0 mm
20:50 -11.1 °C -15.2 °C 34327.3 hPa SW 2.6 km/h 5.1 km/h 61 % 0 mm
20:52 -9.7 °C -14.6 °C 34222.3 hPa SSW 20.9 km/h 20.9 km/h 55 % 0 mm
20:57 -9.7 °C -14.7 °C 34222.3 hPa SW 15.3 km/h 15.3 km/h 55 % 0 mm
21:00 -11.3 °C -15.3 °C 34327.3 hPa WSW 2.6 km/h 5.1 km/h 61 % 0 mm
21:07 -9.8 °C -15.1 °C 34222.3 hPa SW 11.9 km/h 11.9 km/h 53 % 0 mm
21:10 -11.4 °C -15.3 °C 34327.3 hPa SW 5.1 km/h 5.1 km/h 62 % 0 mm
21:12 -9.9 °C -15.2 °C 34222.3 hPa WSW 9 km/h 11.1 km/h 53 % 0 mm
21:17 -9.9 °C -15.2 °C 34256.2 hPa SW 6.8 km/h 9.8 km/h 53 % 0 mm
21:20 -11.6 °C -15.3 °C 34327.3 hPa SW 2.6 km/h 7.7 km/h 63 % 0 mm
21:22 -10 °C -15.2 °C 34256.2 hPa SSW 23.8 km/h 23.8 km/h 53 % 0 mm
21:27 -10.1 °C -15.3 °C 34256.2 hPa SW 15 km/h 15 km/h 53 % 0 mm
21:30 -11.5 °C -15.2 °C 34327.3 hPa SW 5.1 km/h 5.1 km/h 64 % 0 mm
21:37 -10.2 °C -15.4 °C 34256.2 hPa SW 15 km/h 15 km/h 53 % 0 mm
21:42 -10.2 °C -15.4 °C 34256.2 hPa WSW 9 km/h 9 km/h 53 % 0 mm
21:47 -10.3 °C -15.5 °C 34256.2 hPa West 9 km/h 9 km/h 53 % 0 mm
21:50 -11.5 °C -14.9 °C 34327.3 hPa WSW 5.1 km/h 10.3 km/h 66 % 0 mm
21:52 -10.3 °C -15.3 °C 34256.2 hPa West 9 km/h 9 km/h 54 % 0 mm
21:57 -10.3 °C -15.4 °C 34256.2 hPa WSW 6.3 km/h 6.3 km/h 54 % 0 mm
22:00 -11.5 °C -14.8 °C 34327.3 hPa WSW 7.7 km/h 7.7 km/h 67 % 0 mm
22:02 -10.4 °C -15.4 °C 34256.2 hPa WSW 7.6 km/h 7.6 km/h 54 % 0 mm
22:07 -10.5 °C -15.4 °C 34256.2 hPa SW 6.3 km/h 6.3 km/h 55 % 0 mm
22:10 -11.4 °C -14.6 °C 34327.3 hPa WSW 5.1 km/h 7.7 km/h 68 % 0 mm
22:12 -10.6 °C -15.4 °C 34256.2 hPa West 6 km/h 6 km/h 55 % 0 mm
22:20 -11.4 °C -14.5 °C 34327.3 hPa WSW 5.1 km/h 7.7 km/h 69 % 0 mm
22:22 -10.6 °C -15.4 °C 34256.2 hPa WSW 8 km/h 8 km/h 55 % 0 mm
22:27 -10.6 °C -15.4 °C 34256.2 hPa WSW 9.3 km/h 9.3 km/h 56 % 0 mm
22:30 -11.4 °C -14.5 °C 34327.3 hPa WSW 5.1 km/h 7.7 km/h 69 % 0 mm
22:32 -10.7 °C -15.4 °C 34256.2 hPa West 10.3 km/h 10.3 km/h 56 % 0 mm
22:37 -10.8 °C -15.4 °C 34256.2 hPa SW 9 km/h 9 km/h 57 % 0 mm
22:40 -11.4 °C -14.5 °C 34327.3 hPa WSW 2.6 km/h 7.7 km/h 69 % 0 mm
22:42 -10.8 °C -15.4 °C 34256.2 hPa WSW 9 km/h 9 km/h 57 % 0 mm
22:47 -10.8 °C -15.4 °C 34293.4 hPa SW 7.6 km/h 8 km/h 57 % 0 mm
22:50 -11.5 °C -14.4 °C 34327.3 hPa WSW 2.6 km/h 7.7 km/h 70 % 0 mm
22:52 -10.8 °C -15.3 °C 34293.4 hPa WSW 9.8 km/h 9.8 km/h 58 % 0 mm
22:57 -10.8 °C -15.3 °C 34293.4 hPa WSW 9.8 km/h 9.8 km/h 58 % 0 mm
23:00 -11.6 °C -14.5 °C 34327.3 hPa Calm   5.1 km/h 70 % 0 mm
23:02 -10.9 °C -15.2 °C 34256.2 hPa WSW 9.8 km/h 9.8 km/h 59 % 0 mm
23:07 -10.9 °C -15.3 °C 34256.2 hPa WSW 9.8 km/h 9.8 km/h 59 % 0 mm
23:10 -11.6 °C -14.4 °C 34327.3 hPa Calm   5.1 km/h 71 % 0 mm
23:12 -10.9 °C -15.3 °C 34256.2 hPa WSW 6 km/h 6.3 km/h 59 % 0 mm
23:17 -11.1 °C -15.4 °C 34293.4 hPa SW 6.8 km/h 6.8 km/h 59 % 0 mm
23:20 -11.5 °C -14.2 °C 34327.3 hPa West 5.1 km/h 7.7 km/h 72 % 0 mm
23:22 -11.1 °C -15.4 °C 34293.4 hPa SW 6.8 km/h 6.8 km/h 59 % 0 mm
23:27 -11.1 °C -15.4 °C 34293.4 hPa SW 6.8 km/h 6.8 km/h 59 % 0 mm
23:30 -11.5 °C -14.1 °C 34327.3 hPa WSW 5.1 km/h 7.7 km/h 73 % 0 mm
23:32 -11.1 °C -15.4 °C 34293.4 hPa SW 6.8 km/h 6.8 km/h 59 % 0 mm
23:37 -11.1 °C -15.4 °C 34293.4 hPa WSW 7.6 km/h 7.6 km/h 59 % 0 mm
23:40 -11.6 °C -14.1 °C 34327.3 hPa WSW 5.1 km/h 7.7 km/h 73 % 0 mm
23:42 -11 °C -15.3 °C 34293.4 hPa WSW 9 km/h 9 km/h 59 % 0 mm
23:47 -11.1 °C -15.4 °C 34293.4 hPa SW 9 km/h 9 km/h 59 % 0 mm
23:50 -11.5 °C -14 °C 34327.3 hPa West 5.1 km/h 7.7 km/h 74 % 0 mm
23:57 -11 °C -15.3 °C 34293.4 hPa WSW 9 km/h 9 km/h 59 % 0 mm
Meteo Sesrovires
Elogis d' Weather Underground - 1.5 mb

Guio original per  Jim McMurry - jmcmurry@mwt.net Adaptat per a la plantilla per  Wim van der Kuil - Leuven-Template.eu

Trobareu la nostra informacio del temps tambe a:

Weather Underground

AWEKAS